createdAt,value
2022-08-02T00:01:11.949Z,13.81
2022-08-02T00:06:13.858Z,13.85
2022-08-02T00:11:15.732Z,13.98
2022-08-02T00:16:17.595Z,14.13
2022-08-02T00:21:19.420Z,14.48
2022-08-02T00:26:21.307Z,14.65
2022-08-02T00:31:23.365Z,14.72
2022-08-02T00:36:25.279Z,14.69
2022-08-02T00:41:27.103Z,14.50
2022-08-02T00:46:28.929Z,14.39
2022-08-02T00:51:30.739Z,14.29
2022-08-02T00:56:32.643Z,14.10
2022-08-02T01:01:57.532Z,13.93
2022-08-02T01:07:01.053Z,14.05
2022-08-02T01:12:03.026Z,13.99
2022-08-02T01:17:19.452Z,13.77
2022-08-02T01:23:01.672Z,13.60
2022-08-02T01:28:24.071Z,13.48
2022-08-02T01:33:32.663Z,13.49
2022-08-02T01:38:40.093Z,13.43
2022-08-02T01:43:44.531Z,13.38
2022-08-02T01:48:48.597Z,13.31
2022-08-02T01:53:51.664Z,13.26
2022-08-02T01:58:54.819Z,13.21
2022-08-02T02:03:57.024Z,13.12
2022-08-02T02:09:00.278Z,13.08
2022-08-02T02:14:04.211Z,13.04
2022-08-02T02:19:09.274Z,12.97
2022-08-02T02:24:11.936Z,12.93
2022-08-02T02:29:16.540Z,13.06
2022-08-02T02:34:26.647Z,12.93
2022-08-02T02:39:30.540Z,12.84
2022-08-02T02:44:34.293Z,12.79
2022-08-02T02:49:37.938Z,12.73
2022-08-02T02:54:42.066Z,12.66
2022-08-02T02:59:49.182Z,12.61
2022-08-02T03:04:56.858Z,12.60
2022-08-02T03:10:00.326Z,12.56
2022-08-02T03:15:05.843Z,12.68
2022-08-02T03:20:13.343Z,12.81
2022-08-02T03:25:16.644Z,12.62
2022-08-02T03:30:18.569Z,12.48
2022-08-02T03:35:24.045Z,12.44
2022-08-02T03:40:27.900Z,12.38
2022-08-02T03:45:30.508Z,12.32
2022-08-02T03:50:33.872Z,12.29
2022-08-02T03:55:36.369Z,12.32
2022-08-02T04:00:38.232Z,12.37
2022-08-02T04:06:01.089Z,12.45
2022-08-02T04:11:20.875Z,12.48
2022-08-02T04:16:29.170Z,12.54
2022-08-02T04:21:48.624Z,12.62
2022-08-02T04:27:06.369Z,12.62
2022-08-02T04:32:10.289Z,12.67
2022-08-02T04:37:14.224Z,12.75
2022-08-02T04:42:26.754Z,12.97
2022-08-02T04:48:01.977Z,13.09
2022-08-02T04:52:50.878Z,13.22
2022-08-02T04:57:55.573Z,13.39
2022-08-02T05:02:58.013Z,13.73
2022-08-02T05:08:00.330Z,14.24
2022-08-02T05:13:04.612Z,14.82
2022-08-02T05:18:06.744Z,15.19
2022-08-02T05:23:08.693Z,15.34
2022-08-02T05:28:11.786Z,15.43
2022-08-02T05:33:13.823Z,15.74
2022-08-02T05:38:15.670Z,15.95
2022-08-02T05:43:17.770Z,16.13
2022-08-02T05:48:25.431Z,16.52
2022-08-02T05:53:47.605Z,16.77
2022-08-02T05:59:03.195Z,16.85
2022-08-02T06:04:10.764Z,17.08
2022-08-02T06:09:20.985Z,17.33
2022-08-02T06:14:34.047Z,17.81
2022-08-02T06:19:51.182Z,18.32
2022-08-02T06:24:55.177Z,18.62
2022-08-02T06:29:58.031Z,18.66
2022-08-02T06:35:00.813Z,18.50
2022-08-02T06:40:14.369Z,18.29
2022-08-02T06:45:17.121Z,18.37
2022-08-02T06:50:18.999Z,18.67
2022-08-02T06:55:21.078Z,19.07
2022-08-02T07:00:22.986Z,19.53
2022-08-02T07:05:25.017Z,19.60
2022-08-02T07:10:26.926Z,19.48
2022-08-02T07:15:28.817Z,20.11
2022-08-02T07:20:30.714Z,20.39
2022-08-02T07:26:02.358Z,20.41
2022-08-02T07:30:55.943Z,20.56
2022-08-02T07:35:58.868Z,20.46
2022-08-02T07:41:03.572Z,20.21
2022-08-02T07:46:05.815Z,20.48
2022-08-02T07:51:07.744Z,20.13
2022-08-02T07:56:09.646Z,20.22
2022-08-02T08:01:11.566Z,20.40
2022-08-02T08:06:13.473Z,20.67
2022-08-02T08:11:15.340Z,20.64
2022-08-02T08:16:17.583Z,20.72
2022-08-02T08:21:19.406Z,21.27
2022-08-02T08:26:21.384Z,21.90
2022-08-02T08:31:24.363Z,22.12
2022-08-02T08:36:26.364Z,22.09
2022-08-02T08:41:30.051Z,22.57
2022-08-02T08:46:34.671Z,22.61
2022-08-02T08:51:44.025Z,22.67
2022-08-02T08:56:46.576Z,22.45
2022-08-02T09:01:51.294Z,22.62
2022-08-02T09:06:53.354Z,22.88
2022-08-02T09:11:55.245Z,23.59
2022-08-02T09:17:07.983Z,24.28
2022-08-02T09:22:12.248Z,24.75
2022-08-02T09:27:22.755Z,25.67
2022-08-02T09:32:24.720Z,26.00
2022-08-02T09:37:27.620Z,25.60
2022-08-02T09:42:30.624Z,25.74
2022-08-02T09:47:37.525Z,25.86
2022-08-02T09:52:44.038Z,25.96
2022-08-02T09:57:50.987Z,26.41
2022-08-02T10:03:18.387Z,26.55
2022-08-02T10:08:26.108Z,27.32
2022-08-02T10:13:33.059Z,26.95
2022-08-02T10:18:39.270Z,27.83
2022-08-02T10:23:44.323Z,27.31
2022-08-02T10:28:48.448Z,27.96
2022-08-02T10:33:53.070Z,28.82
2022-08-02T10:38:56.186Z,29.71
2022-08-02T10:44:00.285Z,28.98
2022-08-02T10:49:36.331Z,28.38
2022-08-02T10:54:37.434Z,27.84
2022-08-02T10:59:39.292Z,27.84
2022-08-02T11:04:44.243Z,28.42
2022-08-02T11:09:48.711Z,28.49
2022-08-02T11:15:07.353Z,28.91
2022-08-02T11:20:12.969Z,30.28
2022-08-02T11:25:24.125Z,33.05
2022-08-02T11:30:27.545Z,34.66
2022-08-02T11:35:40.144Z,35.69
2022-08-02T11:40:43.172Z,35.61
2022-08-02T11:45:46.099Z,38.67
2022-08-02T11:50:47.953Z,40.64
2022-08-02T11:55:49.908Z,40.83
2022-08-02T12:00:54.058Z,38.93
2022-08-02T12:06:05.888Z,40.24
2022-08-02T12:11:08.601Z,42.00
2022-08-02T12:16:32.971Z,43.15
2022-08-02T12:21:34.856Z,44.03
2022-08-02T12:26:47.962Z,41.78
2022-08-02T12:31:56.476Z,38.46
2022-08-02T12:37:07.228Z,40.14
2022-08-02T12:42:11.930Z,40.86
2022-08-02T12:47:13.973Z,44.24
2022-08-02T12:52:20.850Z,42.26
2022-08-02T12:57:22.773Z,41.14
2022-08-02T13:02:24.677Z,42.96
2022-08-02T13:07:40.885Z,44.14
2022-08-02T13:12:47.464Z,46.31
2022-08-02T13:17:49.837Z,47.25
2022-08-02T13:22:53.440Z,45.63
2022-08-02T13:27:55.514Z,44.32
2022-08-02T13:33:00.926Z,46.50
2022-08-02T13:38:04.546Z,46.78
2022-08-02T13:43:06.405Z,46.06
2022-08-02T13:48:10.701Z,45.94
2022-08-02T13:53:19.107Z,47.25
2022-08-02T13:58:21.099Z,48.16
2022-08-02T14:03:23.161Z,46.69
2022-08-02T14:08:44.986Z,46.64
2022-08-02T14:13:46.865Z,43.66
2022-08-02T14:18:48.775Z,46.17
2022-08-02T14:23:51.137Z,49.75
2022-08-02T14:28:53.485Z,50.49
2022-08-02T14:33:55.330Z,48.35
2022-08-02T14:38:57.208Z,46.75
2022-08-02T14:44:04.960Z,41.54
2022-08-02T14:49:08.316Z,40.84
2022-08-02T14:54:11.734Z,40.95
2022-08-02T14:59:16.437Z,43.17
2022-08-02T15:04:18.335Z,40.04
2022-08-02T15:09:21.339Z,37.29
2022-08-02T15:14:26.227Z,41.14
2022-08-02T15:19:56.286Z,44.84
2022-08-02T15:24:51.219Z,43.61
2022-08-02T15:30:00.283Z,40.09
2022-08-02T15:35:02.543Z,36.01
2022-08-02T15:40:04.948Z,34.43
2022-08-02T15:45:07.223Z,33.39
2022-08-02T15:50:15.165Z,32.09
2022-08-02T15:55:17.098Z,31.40
2022-08-02T16:00:19.262Z,30.78
2022-08-02T16:05:21.736Z,30.10
2022-08-02T16:10:23.652Z,29.48
2022-08-02T16:15:25.520Z,29.05
2022-08-02T16:20:27.364Z,28.87
2022-08-02T16:25:29.204Z,28.47
2022-08-02T16:30:31.355Z,28.51
2022-08-02T16:35:34.935Z,28.18
2022-08-02T16:40:36.755Z,28.01
2022-08-02T16:45:38.600Z,28.11
2022-08-02T16:50:40.575Z,27.83
2022-08-02T16:55:51.503Z,27.15
2022-08-02T17:00:54.034Z,26.67
2022-08-02T17:05:57.117Z,26.63
2022-08-02T17:11:03.531Z,26.40
2022-08-02T17:16:25.693Z,26.10
2022-08-02T17:21:28.458Z,25.93
2022-08-02T17:26:30.394Z,25.77
2022-08-02T17:31:42.899Z,25.56
2022-08-02T17:36:49.687Z,25.50
2022-08-02T17:41:52.095Z,25.42
2022-08-02T17:46:53.900Z,25.29
2022-08-02T17:52:49.097Z,25.15
2022-08-02T17:57:19.411Z,25.00
2022-08-02T18:02:21.271Z,24.89
2022-08-02T18:07:25.248Z,24.69
2022-08-02T18:12:27.724Z,24.56
2022-08-02T18:17:29.587Z,24.27
2022-08-02T18:22:31.382Z,24.13
2022-08-02T18:27:33.494Z,23.94
2022-08-02T18:33:57.760Z,23.69
2022-08-02T18:38:03.578Z,23.45
2022-08-02T18:43:07.725Z,23.17
2022-08-02T18:48:09.798Z,22.87
2022-08-02T18:53:11.620Z,22.57
2022-08-02T18:58:20.307Z,22.31
2022-08-02T19:03:22.644Z,22.01
2022-08-02T19:08:26.471Z,21.70
2022-08-02T19:13:28.482Z,21.44
2022-08-02T19:18:30.366Z,21.21
2022-08-02T19:23:32.401Z,21.03
2022-08-02T19:28:34.361Z,20.85
2022-08-02T19:34:05.754Z,20.75
2022-08-02T19:38:59.731Z,20.61
2022-08-02T19:44:27.032Z,20.44
2022-08-02T19:49:40.244Z,20.30
2022-08-02T19:54:55.418Z,20.10
2022-08-02T19:59:58.573Z,19.81
2022-08-02T20:05:00.685Z,19.58
2022-08-02T20:10:11.276Z,19.35
2022-08-02T20:15:14.651Z,19.27
2022-08-02T20:20:18.042Z,19.19
2022-08-02T20:25:21.066Z,19.02
2022-08-02T20:30:25.463Z,18.92
2022-08-02T20:35:27.816Z,18.89
2022-08-02T20:40:29.707Z,18.72
2022-08-02T20:45:33.623Z,18.61
2022-08-02T20:50:54.931Z,18.56
2022-08-02T20:55:57.275Z,18.41
2022-08-02T21:00:59.912Z,18.29
2022-08-02T21:06:02.086Z,18.15
2022-08-02T21:11:09.201Z,18.02
2022-08-02T21:16:15.090Z,17.88
2022-08-02T21:21:20.028Z,17.80
2022-08-02T21:26:27.881Z,17.73
2022-08-02T21:31:44.170Z,17.65
2022-08-02T21:36:46.088Z,17.53
2022-08-02T21:41:48.006Z,17.38
2022-08-02T21:46:55.369Z,17.31
2022-08-02T21:51:57.380Z,17.25
2022-08-02T21:56:59.197Z,17.14
2022-08-02T22:02:01.114Z,17.05
2022-08-02T22:07:03.307Z,16.92
2022-08-02T22:12:10.278Z,16.84
2022-08-02T22:17:14.845Z,16.78
2022-08-02T22:22:16.914Z,16.69
2022-08-02T22:27:19.880Z,16.59
2022-08-02T22:32:57.233Z,16.51
2022-08-02T22:38:14.611Z,16.45
2022-08-02T22:48:41.839Z,16.37
2022-08-02T22:53:46.307Z,16.22
2022-08-02T22:59:09.786Z,16.48
2022-08-02T23:04:09.990Z,16.05
2022-08-02T23:09:11.816Z,15.99
2022-08-02T23:14:13.781Z,15.94
2022-08-02T23:19:34.115Z,15.98
2022-08-02T23:24:35.942Z,15.94
2022-08-02T23:29:37.732Z,15.83
2022-08-02T23:34:39.640Z,15.71
2022-08-02T23:39:42.524Z,15.60
2022-08-02T23:44:44.368Z,15.56
2022-08-02T23:49:46.565Z,15.57
2022-08-02T23:54:48.392Z,15.54
2022-08-02T23:59:51.376Z,15.49
